Hovedside
METAR-TAF:

METAR-TAF

Lufthavner :

Ghadames, Libya

breddegrad: 30-08N, lengdegrad: 009-30E, høyde over havet: 346 m

METAR: fraværende

Tid: 00:07 (22:07 UTC)

Varsel

Denne rapporten ble laget for 17 timer og 7 minutter siden, klokken 05:00 UTC
Varsel gyldig fra 04. klokken 06 UTC til 05. klokken 06 UTC
Vind 10 kt fra Øst-nordøst
Sikt 10 km eller mer
ingen skyer under 1500 m og ingen bygeskyer

TAF: HLTD 040500Z 0406/0506 06010KT CAVOK

Værobservasjoner og værvarsel for over 4000 flyplasser (METAR- og TAF-rapporter).

Tilgjengelige stasjoner er representert av de røde og gule prikkene på kartet.

Hold musepekeren over prikken for å se navnet på stasjonen.

Klikk så for å se værobservasjoner og -varsler.

For å forandre kartet kan du klikke på den grønne knappen med svart kryss for å zoome inn, på den grønne knappen med strek for å zoome ut, eller på de grønne pilene for å se tilstøtende kart.


METAR-TAF: